Time;durP1;ratioP1;P1;durP2;ratioP2;P2;SDS_P1;SDS_P2;PMS_P1;PMS_P2;Temp;Humidity;BMP_temperature;BMP_pressure;BME280_temperature;BME280_humidity;BME280_pressure;Samples;Min_cycle;Max_cycle;Signal;HPM_P1;HPM_P2
2022/10/05 00:01:03;;;;;;;;;18.00;17.75;;;;;;;;5011304;27;51233;-48
2022/10/05 00:03:37;;;;;;;;;19.50;19.50;;;;;;;;5001448;28;51115;-49
2022/10/05 00:06:03;;;;;;;;;18.00;16.75;;;;;;;;5004940;27;51268;-50
2022/10/05 00:08:30;;;;;;;;;22.25;21.50;;;;;;;;5004396;28;51675;-51
2022/10/05 00:10:55;;;;;;;;;18.00;18.00;;;;;;;;5013682;28;51020;-50
2022/10/05 00:13:25;;;;;;;;;21.25;20.75;;;;;;;;5008932;28;51039;-49
2022/10/05 00:15:56;;;;;;;;;23.00;20.75;;;;;;;;5006394;27;51377;-49
2022/10/05 00:18:21;;;;;;;;;20.50;18.50;;;;;;;;5003320;28;51723;-52
2022/10/05 00:20:47;;;;;;;;;18.50;17.75;;;;;;;;4997611;28;51215;-51
2022/10/05 00:23:15;;;;;;;;;18.00;18.00;;;;;;;;5002599;27;51148;-51
2022/10/05 00:25:41;;;;;;;;;14.00;14.00;;;;;;;;5007100;28;51187;-50
2022/10/05 00:28:14;;;;;;;;;20.25;20.00;;;;;;;;5009768;28;52522;-53
2022/10/05 00:30:39;;;;;;;;;17.25;17.00;;;;;;;;5001736;27;51111;-55
2022/10/05 00:33:04;;;;;;;;;22.25;21.25;;;;;;;;5009979;28;51067;-51
2022/10/05 00:35:33;;;;;;;;;19.00;19.00;;;;;;;;5009488;28;51027;-50
2022/10/05 00:37:58;;;;;;;;;20.00;18.00;;;;;;;;5011462;27;51056;-53
2022/10/05 00:40:31;;;;;;;;;19.00;19.00;;;;;;;;5007137;27;51070;-48
2022/10/05 00:43:11;;;;;;;;;19.75;18.00;;;;;;;;5003143;27;51317;-51
2022/10/05 00:45:40;;;;;;;;;20.50;20.00;;;;;;;;5007499;27;51111;-51
2022/10/05 00:48:14;;;;;;;;;18.75;16.50;;;;;;;;5005548;27;51344;-49
2022/10/05 00:50:39;;;;;;;;;19.75;18.75;;;;;;;;5006307;28;51043;-49
2022/10/05 00:53:23;;;;;;;;;19.00;18.25;;;;;;;;4999907;27;51020;-57
2022/10/05 00:55:51;;;;;;;;;20.00;18.25;;;;;;;;5008259;27;51275;-50
2022/10/05 00:58:35;;;;;;;;;24.25;22.50;;;;;;;;5011324;28;51712;-51
2022/10/05 01:01:03;;;;;;;;;18.75;17.25;;;;;;;;5002391;27;51201;-50
2022/10/05 01:03:48;;;;;;;;;17.25;16.25;;;;;;;;4999716;27;52614;-51
2022/10/05 01:06:21;;;;;;;;;17.75;17.50;;;;;;;;5004728;28;52379;-52
2022/10/05 01:08:46;;;;;;;;;15.50;15.25;;;;;;;;5003666;28;52463;-49
2022/10/05 01:11:22;;;;;;;;;19.80;18.20;;;;;;;;4998508;28;51173;-48
2022/10/05 01:13:58;;;;;;;;;17.25;16.25;;;;;;;;5002899;27;51018;-51
2022/10/05 01:16:43;;;;;;;;;17.25;17.00;;;;;;;;5023264;27;51239;-49
2022/10/05 01:19:18;;;;;;;;;14.50;14.00;;;;;;;;4999825;28;52895;-50
2022/10/05 01:21:55;;;;;;;;;23.00;20.00;;;;;;;;5005731;27;51153;-49
2022/10/05 01:24:30;;;;;;;;;17.25;17.25;;;;;;;;5007932;28;51188;-50
2022/10/05 01:27:01;;;;;;;;;16.00;14.25;;;;;;;;5000137;28;51137;-50
2022/10/05 01:29:36;;;;;;;;;13.50;13.25;;;;;;;;4999835;27;51141;-48
2022/10/05 01:32:22;;;;;;;;;14.50;13.50;;;;;;;;5007924;28;51172;-49
2022/10/05 01:34:53;;;;;;;;;12.00;12.00;;;;;;;;5006593;28;50933;-52
2022/10/05 01:37:18;;;;;;;;;14.00;11.50;;;;;;;;4999893;28;51051;-50
2022/10/05 01:39:55;;;;;;;;;8.50;8.00;;;;;;;;5004551;27;51702;-51
2022/10/05 01:42:32;;;;;;;;;15.75;14.00;;;;;;;;5007118;28;51227;-51
2022/10/05 01:45:05;;;;;;;;;12.50;12.50;;;;;;;;5001843;27;51107;-51
2022/10/05 01:47:33;;;;;;;;;12.25;11.00;;;;;;;;4998306;28;51146;-50
2022/10/05 01:50:06;;;;;;;;;11.75;11.00;;;;;;;;5002950;27;52757;-50
2022/10/05 01:52:50;;;;;;;;;11.25;9.75;;;;;;;;5008194;28;51097;-51
2022/10/05 01:55:24;;;;;;;;;12.00;10.25;;;;;;;;5007506;27;51528;-50
2022/10/05 01:57:55;;;;;;;;;10.00;10.00;;;;;;;;5018830;27;51166;-51
2022/10/05 02:00:21;;;;;;;;;12.75;11.25;;;;;;;;5012802;27;52363;-49
2022/10/05 02:02:47;;;;;;;;;9.50;9.25;;;;;;;;5003910;27;51142;-50
2022/10/05 02:05:17;;;;;;;;;10.50;10.25;;;;;;;;5000056;28;51074;-51
2022/10/05 02:07:45;;;;;;;;;9.67;9.00;;;;;;;;4998260;27;51067;-50
2022/10/05 02:10:10;;;;;;;;;10.00;9.00;;;;;;;;5005888;28;51664;-50
2022/10/05 02:12:37;;;;;;;;;10.00;10.00;;;;;;;;5000686;28;51070;-49
2022/10/05 02:15:09;;;;;;;;;7.00;7.00;;;;;;;;5005481;28;51150;-52
2022/10/05 02:17:37;;;;;;;;;9.50;9.50;;;;;;;;5015017;27;51388;-53
2022/10/05 02:20:06;;;;;;;;;8.67;8.33;;;;;;;;5005534;27;51450;-50
2022/10/05 02:22:34;;;;;;;;;7.00;7.00;;;;;;;;5005017;28;51172;-49
2022/10/05 02:25:06;;;;;;;;;7.00;7.00;;;;;;;;5000634;28;51151;-50
2022/10/05 02:27:34;;;;;;;;;8.67;8.00;;;;;;;;5029119;27;51533;-51
2022/10/05 02:30:01;;;;;;;;;7.00;6.67;;;;;;;;5003414;28;51807;-51
2022/10/05 02:32:31;;;;;;;;;7.00;7.00;;;;;;;;4997454;27;51109;-53
2022/10/05 02:35:06;;;;;;;;;6.67;6.00;;;;;;;;5004121;27;51177;-51
2022/10/05 02:37:31;;;;;;;;;6.33;6.00;;;;;;;;4997140;28;50996;-52
2022/10/05 02:40:03;;;;;;;;;5.00;5.00;;;;;;;;5001449;28;51891;-50
2022/10/05 02:42:47;;;;;;;;;7.67;6.00;;;;;;;;4988959;28;51280;-51
2022/10/05 02:45:12;;;;;;;;;7.00;6.00;;;;;;;;4995604;27;51108;-51
2022/10/05 02:47:38;;;;;;;;;6.00;6.00;;;;;;;;4995907;28;51450;-49
2022/10/05 02:50:15;;;;;;;;;6.67;6.67;;;;;;;;4998859;28;51114;-51
2022/10/05 02:52:52;;;;;;;;;5.00;5.00;;;;;;;;5002348;27;50962;-50
2022/10/05 02:55:23;;;;;;;;;7.00;6.33;;;;;;;;5003635;28;51179;-50
2022/10/05 02:57:56;;;;;;;;;6.33;6.33;;;;;;;;5008677;28;51303;-50
2022/10/05 03:00:23;;;;;;;;;7.00;7.00;;;;;;;;5015552;27;51862;-52
2022/10/05 03:02:57;;;;;;;;;6.33;5.00;;;;;;;;5007924;27;50928;-52
2022/10/05 03:05:38;;;;;;;;;8.00;8.00;;;;;;;;5006164;27;51152;-50
2022/10/05 03:08:03;;;;;;;;;5.00;5.00;;;;;;;;5000931;28;50917;-51
2022/10/05 03:10:40;;;;;;;;;6.67;6.67;;;;;;;;4997323;27;52889;-50
2022/10/05 03:13:24;;;;;;;;;7.67;6.67;;;;;;;;4998603;28;51103;-50
2022/10/05 03:15:58;;;;;;;;;7.00;7.00;;;;;;;;5023676;27;51356;-49
2022/10/05 03:18:50;;;;;;;;;7.00;7.00;;;;;;;;5004004;28;51098;-50
2022/10/05 03:21:15;;;;;;;;;7.00;6.67;;;;;;;;5005283;27;51179;-50
2022/10/05 03:23:46;;;;;;;;;6.00;6.00;;;;;;;;4997712;27;51141;-55
2022/10/05 03:26:11;;;;;;;;;7.00;6.67;;;;;;;;5005541;27;51276;-51
2022/10/05 03:28:49;;;;;;;;;8.00;8.00;;;;;;;;5010236;27;50796;-51
2022/10/05 03:31:23;;;;;;;;;6.33;5.67;;;;;;;;4999084;28;51160;-52
2022/10/05 03:33:53;;;;;;;;;8.00;7.00;;;;;;;;5001906;28;51049;-51
2022/10/05 03:36:34;;;;;;;;;7.33;7.33;;;;;;;;5000267;28;50994;-51
2022/10/05 03:39:05;;;;;;;;;9.33;8.33;;;;;;;;4994814;28;51099;-50
2022/10/05 03:41:39;;;;;;;;;8.33;8.00;;;;;;;;5000566;28;52512;-50
2022/10/05 03:44:14;;;;;;;;;9.33;9.33;;;;;;;;5005906;27;51193;-50
2022/10/05 03:46:58;;;;;;;;;8.00;8.00;;;;;;;;5004467;28;51336;-52
2022/10/05 03:49:24;;;;;;;;;8.00;8.00;;;;;;;;5002687;27;51166;-50
2022/10/05 03:51:58;;;;;;;;;10.00;9.20;;;;;;;;5004139;28;51957;-52
2022/10/05 03:54:25;;;;;;;;;8.00;8.00;;;;;;;;5007039;28;51124;-51
2022/10/05 03:57:02;;;;;;;;;9.00;9.00;;;;;;;;5007624;28;51052;-50
2022/10/05 03:59:33;;;;;;;;;9.00;9.00;;;;;;;;5008174;28;51072;-51
2022/10/05 04:02:04;;;;;;;;;8.00;8.00;;;;;;;;5004799;27;51204;-52
2022/10/05 04:04:29;;;;;;;;;8.67;8.33;;;;;;;;5016979;27;50908;-52
2022/10/05 04:06:56;;;;;;;;;10.00;8.50;;;;;;;;5005859;27;51170;-50
2022/10/05 04:09:24;;;;;;;;;11.50;10.50;;;;;;;;4999736;28;51245;-50
2022/10/05 04:12:01;;;;;;;;;9.50;9.00;;;;;;;;5003860;27;54110;-49
2022/10/05 04:14:58;;;;;;;;;13.50;12.75;;;;;;;;4995500;28;51088;-50
2022/10/05 04:17:31;;;;;;;;;10.75;9.75;;;;;;;;5033772;28;52773;-49
2022/10/05 04:20:01;;;;;;;;;8.00;7.00;;;;;;;;5008127;28;51237;-52
2022/10/05 04:22:30;;;;;;;;;8.00;8.00;;;;;;;;4996511;28;51091;-50
2022/10/05 04:25:05;;;;;;;;;8.00;8.00;;;;;;;;4994442;28;50989;-49
2022/10/05 04:27:38;;;;;;;;;10.25;10.00;;;;;;;;5001555;28;51159;-50
2022/10/05 04:30:11;;;;;;;;;7.67;7.67;;;;;;;;5007282;28;51337;-49
2022/10/05 04:32:56;;;;;;;;;9.00;9.00;;;;;;;;5004165;27;51936;-51
2022/10/05 04:35:24;;;;;;;;;10.00;9.00;;;;;;;;5000809;28;51114;-49
2022/10/05 04:38:02;;;;;;;;;10.50;9.25;;;;;;;;5005854;27;50999;-49
2022/10/05 04:40:45;;;;;;;;;7.00;6.50;;;;;;;;5002194;28;51122;-50
2022/10/05 04:43:16;;;;;;;;;8.75;8.00;;;;;;;;5005278;28;51285;-49
2022/10/05 04:45:56;;;;;;;;;7.25;7.25;;;;;;;;5007562;28;51062;-53
2022/10/05 04:48:29;;;;;;;;;7.00;6.33;;;;;;;;4997530;28;51209;-49
2022/10/05 04:51:13;;;;;;;;;8.00;8.00;;;;;;;;5003264;27;51313;-50
2022/10/05 04:53:43;;;;;;;;;7.00;7.00;;;;;;;;5004350;28;51052;-50
2022/10/05 04:56:14;;;;;;;;;7.75;6.25;;;;;;;;5008426;28;50910;-53
2022/10/05 04:58:39;;;;;;;;;8.00;7.75;;;;;;;;5005062;28;51102;-50
2022/10/05 05:01:04;;;;;;;;;7.00;7.00;;;;;;;;5015580;27;51020;-52
2022/10/05 05:03:29;;;;;;;;;7.00;6.00;;;;;;;;5004997;28;51864;-52
2022/10/05 05:06:08;;;;;;;;;6.67;6.67;;;;;;;;4998957;27;51168;-51
2022/10/05 05:08:43;;;;;;;;;6.00;5.25;;;;;;;;5000154;28;50886;-51
2022/10/05 05:11:08;;;;;;;;;8.50;7.25;;;;;;;;4996716;28;51208;-49
2022/10/05 05:13:44;;;;;;;;;8.50;8.00;;;;;;;;5006586;28;51006;-52
2022/10/05 05:16:27;;;;;;;;;9.25;8.00;;;;;;;;5025040;27;51105;-51
2022/10/05 05:19:13;;;;;;;;;8.00;7.00;;;;;;;;4993960;28;50924;-49
2022/10/05 05:21:41;;;;;;;;;6.33;6.33;;;;;;;;5008490;27;50885;-52
2022/10/05 05:24:21;;;;;;;;;6.25;6.25;;;;;;;;5009427;28;51916;-50
2022/10/05 05:27:05;;;;;;;;;8.00;8.00;;;;;;;;4999087;28;50988;-49
2022/10/05 05:29:30;;;;;;;;;8.00;7.00;;;;;;;;5002407;28;51105;-49
2022/10/05 05:32:01;;;;;;;;;8.67;8.67;;;;;;;;5005487;28;51245;-50
2022/10/05 05:34:33;;;;;;;;;6.00;6.00;;;;;;;;5030034;27;52333;-51
2022/10/05 05:37:07;;;;;;;;;6.33;5.33;;;;;;;;5012513;27;51087;-50
2022/10/05 05:39:44;;;;;;;;;10.00;10.00;;;;;;;;5002611;27;51399;-49
2022/10/05 05:42:16;;;;;;;;;8.75;8.00;;;;;;;;5008273;27;51045;-50
2022/10/05 05:44:46;;;;;;;;;8.00;8.00;;;;;;;;5010344;28;52798;-51
2022/10/05 05:47:14;;;;;;;;;8.67;8.00;;;;;;;;5007114;28;51326;-50
2022/10/05 05:50:06;;;;;;;;;8.00;8.00;;;;;;;;4998528;28;51106;-50
2022/10/05 05:52:37;;;;;;;;;11.25;10.00;;;;;;;;5034876;28;51114;-50
2022/10/05 05:55:12;;;;;;;;;8.33;8.33;;;;;;;;5013844;28;51817;-51
2022/10/05 05:57:40;;;;;;;;;7.00;7.00;;;;;;;;4995098;27;52574;-49
2022/10/05 06:00:20;;;;;;;;;11.67;11.33;;;;;;;;4996275;28;51363;-51
2022/10/05 06:03:02;;;;;;;;;16.25;13.25;;;;;;;;4999749;28;51729;-50
2022/10/05 06:05:29;;;;;;;;;11.25;11.25;;;;;;;;4996433;28;50995;-49
2022/10/05 06:07:57;;;;;;;;;9.00;9.00;;;;;;;;5004417;28;51332;-53
2022/10/05 06:10:22;;;;;;;;;7.67;7.67;;;;;;;;5010058;27;51041;-50
2022/10/05 06:12:48;;;;;;;;;10.25;9.75;;;;;;;;4999970;27;52925;-51
2022/10/05 06:15:34;;;;;;;;;9.50;8.75;;;;;;;;5003505;27;51531;-50
2022/10/05 06:18:09;;;;;;;;;8.50;8.25;;;;;;;;5003822;28;50964;-51
2022/10/05 06:20:43;;;;;;;;;7.25;7.25;;;;;;;;5007516;28;51024;-49
2022/10/05 06:23:27;;;;;;;;;8.33;8.33;;;;;;;;5005714;28;51245;-49
2022/10/05 06:25:55;;;;;;;;;9.67;9.00;;;;;;;;5002364;27;51128;-50
2022/10/05 06:28:23;;;;;;;;;17.75;15.25;;;;;;;;5001140;27;51073;-50
2022/10/05 06:30:54;;;;;;;;;8.75;8.75;;;;;;;;5001378;27;53772;-49
2022/10/05 06:33:49;;;;;;;;;7.33;7.33;;;;;;;;5006871;27;51629;-50
2022/10/05 06:36:26;;;;;;;;;9.33;9.33;;;;;;;;5016782;27;51474;-48
2022/10/05 06:39:09;;;;;;;;;10.50;10.00;;;;;;;;5003936;27;51340;-50
2022/10/05 06:41:40;;;;;;;;;12.00;10.00;;;;;;;;5004834;28;51569;-51
2022/10/05 06:44:13;;;;;;;;;12.00;10.75;;;;;;;;5003248;27;51354;-49
2022/10/05 06:46:47;;;;;;;;;13.50;13.50;;;;;;;;4997182;27;51845;-50
2022/10/05 06:49:22;;;;;;;;;15.50;12.50;;;;;;;;5005310;27;51210;-48
2022/10/05 06:51:54;;;;;;;;;14.75;14.75;;;;;;;;5016451;28;51233;-50
2022/10/05 06:54:19;;;;;;;;;13.75;12.50;;;;;;;;5006528;28;51249;-51
2022/10/05 06:56:54;;;;;;;;;17.00;16.50;;;;;;;;5018553;27;51651;-51
2022/10/05 06:59:27;;;;;;;;;16.75;15.50;;;;;;;;5007967;27;51186;-49
2022/10/05 07:01:52;;;;;;;;;15.25;13.50;;;;;;;;5008396;28;51118;-49
2022/10/05 07:04:22;;;;;;;;;15.75;15.00;;;;;;;;5009387;27;50864;-50
2022/10/05 07:06:50;;;;;;;;;13.50;13.50;;;;;;;;5008715;28;51493;-49
2022/10/05 07:09:39;;;;;;;;;14.00;13.50;;;;;;;;5011764;27;51280;-50
2022/10/05 07:12:10;;;;;;;;;16.00;16.00;;;;;;;;5029571;27;51088;-50
2022/10/05 07:14:54;;;;;;;;;17.50;16.25;;;;;;;;5030042;27;51338;-48
2022/10/05 07:17:25;;;;;;;;;21.00;19.00;;;;;;;;5026033;27;52387;-49
2022/10/05 07:19:56;;;;;;;;;15.50;15.25;;;;;;;;5000539;27;51192;-51
2022/10/05 07:22:25;;;;;;;;;16.50;16.00;;;;;;;;5020888;27;51319;-51
2022/10/05 07:24:58;;;;;;;;;14.33;13.67;;;;;;;;5053578;27;51041;-49
2022/10/05 07:27:26;;;;;;;;;14.67;14.67;;;;;;;;5046241;27;51220;-50
2022/10/05 07:29:59;;;;;;;;;14.33;13.33;;;;;;;;5019552;27;51095;-49
2022/10/05 07:32:32;;;;;;;;;10.67;10.67;;;;;;;;5000967;28;50993;-51
2022/10/05 07:34:57;;;;;;;;;13.67;13.67;;;;;;;;5014088;27;51000;-50
2022/10/05 07:40:16;;;;;;;;;14.00;13.67;;;;;;;;5009901;27;51101;-49
2022/10/05 07:42:42;;;;;;;;;14.67;12.33;;;;;;;;5002536;28;50876;-52
2022/10/05 07:45:17;;;;;;;;;11.33;11.00;;;;;;;;5004659;27;51296;-50
2022/10/05 07:47:45;;;;;;;;;13.00;12.00;;;;;;;;5012131;27;51152;-50
2022/10/05 07:50:18;;;;;;;;;13.33;13.00;;;;;;;;5006133;27;51260;-50
2022/10/05 07:52:54;;;;;;;;;13.67;13.67;;;;;;;;5010293;27;51177;-53
2022/10/05 07:55:22;;;;;;;;;14.00;13.67;;;;;;;;5011462;27;51130;-49
2022/10/05 07:58:06;;;;;;;;;13.33;12.33;;;;;;;;5006804;27;53454;-48
2022/10/05 08:00:50;;;;;;;;;13.67;13.00;;;;;;;;5023221;27;51731;-53
2022/10/05 08:03:28;;;;;;;;;13.67;13.33;;;;;;;;5012060;27;51090;-49
2022/10/05 08:05:54;;;;;;;;;14.33;12.00;;;;;;;;5014261;27;51448;-50
2022/10/05 08:08:41;;;;;;;;;13.33;12.33;;;;;;;;5007962;27;52614;-50
2022/10/05 08:11:12;;;;;;;;;10.00;10.00;;;;;;;;5017653;27;51090;-49
2022/10/05 08:13:51;;;;;;;;;9.00;9.00;;;;;;;;5028386;27;51089;-50
2022/10/05 08:16:17;;;;;;;;;9.00;9.00;;;;;;;;4996301;27;51345;-49
2022/10/05 08:18:55;;;;;;;;;8.00;8.00;;;;;;;;4993606;28;51923;-50
2022/10/05 08:21:24;;;;;;;;;9.00;9.00;;;;;;;;5027046;27;51212;-50
2022/10/05 08:23:56;;;;;;;;;6.67;6.67;;;;;;;;4997351;28;51126;-51
2022/10/05 08:26:43;;;;;;;;;10.67;10.67;;;;;;;;5013280;27;51017;-52
2022/10/05 08:29:18;;;;;;;;;6.00;5.67;;;;;;;;5003248;28;51544;-50
2022/10/05 08:31:47;;;;;;;;;7.00;7.00;;;;;;;;5013342;27;51134;-52
2022/10/05 08:34:19;;;;;;;;;8.00;7.33;;;;;;;;5057451;27;50928;-49
2022/10/05 08:37:05;;;;;;;;;5.00;5.00;;;;;;;;5025960;27;52144;-49
2022/10/05 08:39:36;;;;;;;;;12.67;12.00;;;;;;;;5019088;27;51344;-49
2022/10/05 08:42:29;;;;;;;;;6.00;6.00;;;;;;;;5010064;28;51065;-50
2022/10/05 08:45:00;;;;;;;;;7.67;7.00;;;;;;;;5001329;28;50876;-49
2022/10/05 08:47:28;;;;;;;;;6.00;6.00;;;;;;;;5028397;27;51113;-50
2022/10/05 08:50:05;;;;;;;;;9.00;8.00;;;;;;;;5007623;28;52067;-52
2022/10/05 08:52:51;;;;;;;;;7.00;6.67;;;;;;;;5005116;28;51153;-50
2022/10/05 08:55:23;;;;;;;;;23.25;21.75;;;;;;;;5005590;28;52610;-53
2022/10/05 08:57:58;;;;;;;;;5.00;5.00;;;;;;;;5004712;27;51107;-50
2022/10/05 09:00:32;;;;;;;;;4.00;4.00;;;;;;;;5018787;27;52654;-49
2022/10/05 09:03:10;;;;;;;;;8.33;8.33;;;;;;;;5017925;27;51130;-49
2022/10/05 09:05:57;;;;;;;;;6.33;6.33;;;;;;;;5011702;27;50873;-49
2022/10/05 09:08:40;;;;;;;;;7.33;7.33;;;;;;;;5009114;27;51372;-51
2022/10/05 09:11:09;;;;;;;;;8.00;8.00;;;;;;;;5007301;28;51230;-50
2022/10/05 09:13:52;;;;;;;;;7.00;7.00;;;;;;;;5010329;27;51216;-51
2022/10/05 09:16:21;;;;;;;;;6.00;6.00;;;;;;;;5004824;27;51224;-52
2022/10/05 09:18:52;;;;;;;;;9.00;8.33;;;;;;;;5033873;27;50941;-50
2022/10/05 09:21:29;;;;;;;;;7.00;6.33;;;;;;;;5001405;28;51227;-50
2022/10/05 09:24:13;;;;;;;;;7.33;7.00;;;;;;;;5011831;27;51041;-51
2022/10/05 09:26:41;;;;;;;;;8.33;7.67;;;;;;;;5008229;28;51231;-52
2022/10/05 09:29:21;;;;;;;;;5.67;5.67;;;;;;;;4999063;27;51247;-48
2022/10/05 09:32:05;;;;;;;;;8.00;8.00;;;;;;;;5006602;28;51196;-50
2022/10/05 09:34:38;;;;;;;;;11.00;10.33;;;;;;;;5016952;27;51230;-50
2022/10/05 09:37:03;;;;;;;;;7.00;7.00;;;;;;;;5013604;27;51131;-49
2022/10/05 09:39:38;;;;;;;;;7.00;7.00;;;;;;;;5011041;27;51226;-49
2022/10/05 09:42:13;;;;;;;;;15.67;14.00;;;;;;;;5008939;28;51798;-49
2022/10/05 09:44:57;;;;;;;;;11.00;8.00;;;;;;;;5008398;28;51061;-49
2022/10/05 09:47:26;;;;;;;;;7.00;7.00;;;;;;;;5029870;27;51206;-50
2022/10/05 09:50:00;;;;;;;;;8.00;8.00;;;;;;;;5009195;28;50977;-51
2022/10/05 09:52:31;;;;;;;;;7.00;7.00;;;;;;;;5012152;27;50987;-49
2022/10/05 09:55:04;;;;;;;;;4.33;4.33;;;;;;;;5008238;28;51106;-49
2022/10/05 09:57:55;;;;;;;;;7.67;7.00;;;;;;;;5005009;28;51051;-50
2022/10/05 10:00:41;;;;;;;;;6.33;5.33;;;;;;;;5033012;27;51205;-50
2022/10/05 10:03:42;;;;;;;;;6.67;6.67;;;;;;;;5005268;28;51218;-52
2022/10/05 10:06:19;;;;;;;;;6.00;6.00;;;;;;;;4995106;28;51171;-50
2022/10/05 10:09:04;;;;;;;;;8.00;6.33;;;;;;;;5012042;27;51277;-49
2022/10/05 10:11:40;;;;;;;;;10.33;10.00;;;;;;;;5006752;27;51484;-51
2022/10/05 10:14:11;;;;;;;;;5.33;4.67;;;;;;;;5006375;27;50827;-51
2022/10/05 10:16:42;;;;;;;;;7.67;7.00;;;;;;;;5016673;27;51107;-50
2022/10/05 10:19:11;;;;;;;;;7.67;7.67;;;;;;;;5007132;28;51140;-51
2022/10/05 10:21:46;;;;;;;;;6.67;6.67;;;;;;;;5001910;28;51289;-52
2022/10/05 10:24:31;;;;;;;;;5.00;5.00;;;;;;;;5005198;28;51964;-51
2022/10/05 10:26:57;;;;;;;;;5.67;5.67;;;;;;;;5024046;28;51520;-50
2022/10/05 10:29:31;;;;;;;;;4.67;4.67;;;;;;;;5005507;27;51212;-51
2022/10/05 10:32:15;;;;;;;;;4.00;4.00;;;;;;;;5007807;28;51201;-50
2022/10/05 10:34:43;;;;;;;;;5.33;5.00;;;;;;;;5014270;28;51264;-51
2022/10/05 10:37:20;;;;;;;;;5.00;4.33;;;;;;;;5020850;28;51157;-50
2022/10/05 10:39:45;;;;;;;;;5.00;4.67;;;;;;;;5007302;28;51175;-49
2022/10/05 10:42:49;;;;;;;;;5.00;4.00;;;;;;;;5007315;28;51231;-49
2022/10/05 10:45:21;;;;;;;;;7.67;7.00;;;;;;;;4971804;28;51996;-50
2022/10/05 10:48:03;;;;;;;;;5.00;5.00;;;;;;;;4961687;28;51276;-50
2022/10/05 10:50:34;;;;;;;;;5.00;4.00;;;;;;;;4989186;28;51276;-50
2022/10/05 10:53:09;;;;;;;;;6.00;6.00;;;;;;;;5015699;27;51268;-54
2022/10/05 10:55:34;;;;;;;;;5.00;5.00;;;;;;;;5008854;28;51959;-52
2022/10/05 10:58:02;;;;;;;;;6.00;5.00;;;;;;;;5008526;28;50862;-50
2022/10/05 11:00:27;;;;;;;;;7.00;6.67;;;;;;;;5024918;27;50934;-55
2022/10/05 11:02:53;;;;;;;;;6.00;5.33;;;;;;;;5059669;27;51321;-52
2022/10/05 11:05:31;;;;;;;;;4.67;4.67;;;;;;;;5009327;28;52068;-52
2022/10/05 11:08:01;;;;;;;;;4.00;4.00;;;;;;;;5009401;27;51096;-49
2022/10/05 11:10:26;;;;;;;;;5.33;5.33;;;;;;;;5009747;28;51009;-50
2022/10/05 11:13:04;;;;;;;;;6.00;6.00;;;;;;;;5010202;27;51120;-50
2022/10/05 11:15:48;;;;;;;;;7.33;7.33;;;;;;;;5015862;27;51099;-51
2022/10/05 11:18:16;;;;;;;;;8.33;8.33;;;;;;;;5027377;27;51002;-51
2022/10/05 11:20:41;;;;;;;;;5.33;4.67;;;;;;;;5010133;27;51038;-49
2022/10/05 11:23:29;;;;;;;;;7.00;6.00;;;;;;;;5009311;28;51743;-50
2022/10/05 11:25:54;;;;;;;;;7.00;7.00;;;;;;;;5018683;28;51822;-50
2022/10/05 11:28:34;;;;;;;;;8.00;8.00;;;;;;;;5009325;27;51030;-50
2022/10/05 11:31:18;;;;;;;;;8.00;8.00;;;;;;;;5008096;28;50988;-50
2022/10/05 11:33:52;;;;;;;;;5.67;5.67;;;;;;;;5009653;27;51081;-50
2022/10/05 11:36:26;;;;;;;;;5.33;5.00;;;;;;;;5008750;28;51090;-52
2022/10/05 11:38:57;;;;;;;;;3.00;3.00;;;;;;;;5009276;28;51071;-49
2022/10/05 11:41:41;;;;;;;;;5.33;5.33;;;;;;;;5009451;27;51021;-52
2022/10/05 11:44:32;;;;;;;;;3.67;3.67;;;;;;;;5009542;28;51378;-53
2022/10/05 11:46:57;;;;;;;;;5.00;5.00;;;;;;;;5009727;28;52308;-50
2022/10/05 11:49:23;;;;;;;;;5.33;4.00;;;;;;;;5008875;28;51040;-50
2022/10/05 11:51:57;;;;;;;;;6.00;6.00;;;;;;;;5009274;28;51145;-51
2022/10/05 11:54:22;;;;;;;;;3.33;3.33;;;;;;;;4995881;28;51428;-50
2022/10/05 11:56:50;;;;;;;;;3.67;3.00;;;;;;;;5009138;27;51666;-52
2022/10/05 11:59:25;;;;;;;;;5.00;4.33;;;;;;;;5008961;28;51110;-50
2022/10/05 12:02:12;;;;;;;;;3.00;2.67;;;;;;;;5016637;27;51054;-51
2022/10/05 12:04:44;;;;;;;;;4.00;4.00;;;;;;;;5012269;28;51229;-54
2022/10/05 12:07:09;;;;;;;;;5.00;5.00;;;;;;;;5008217;28;53132;-52
2022/10/05 12:10:13;;;;;;;;;3.33;3.33;;;;;;;;5009512;27;50917;-51
2022/10/05 12:12:58;;;;;;;;;3.00;3.00;;;;;;;;5019439;28;51367;-52
2022/10/05 12:15:30;;;;;;;;;3.00;3.00;;;;;;;;5016602;27;50897;-51
2022/10/05 12:18:07;;;;;;;;;4.33;4.33;;;;;;;;5057997;27;50986;-49
2022/10/05 12:20:37;;;;;;;;;3.67;3.67;;;;;;;;5015460;28;51091;-49
2022/10/05 12:23:11;;;;;;;;;4.00;4.00;;;;;;;;5015528;28;51049;-54
2022/10/05 12:25:48;;;;;;;;;4.00;4.00;;;;;;;;5016044;27;51078;-52
2022/10/05 12:28:20;;;;;;;;;5.00;4.00;;;;;;;;5015662;28;51643;-56
2022/10/05 12:30:52;;;;;;;;;6.00;5.67;;;;;;;;5015550;27;51030;-51
2022/10/05 12:33:25;;;;;;;;;7.67;7.67;;;;;;;;5015384;28;51115;-50
2022/10/05 12:35:54;;;;;;;;;5.67;5.67;;;;;;;;5015424;28;50889;-51
2022/10/05 12:38:46;;;;;;;;;5.33;4.67;;;;;;;;5013911;28;52721;-50
2022/10/05 12:41:14;;;;;;;;;6.00;5.00;;;;;;;;5016014;28;51226;-50
2022/10/05 12:43:53;;;;;;;;;3.67;3.00;;;;;;;;5014522;28;51131;-51
2022/10/05 12:46:22;;;;;;;;;6.67;6.33;;;;;;;;5015341;28;50968;-50
2022/10/05 12:48:51;;;;;;;;;5.00;5.00;;;;;;;;5007761;28;52001;-49
2022/10/05 12:51:16;;;;;;;;;5.67;5.67;;;;;;;;5015298;28;50925;-52
2022/10/05 12:53:41;;;;;;;;;5.67;5.67;;;;;;;;5017058;27;50990;-51
2022/10/05 12:56:14;;;;;;;;;5.00;5.00;;;;;;;;5002127;28;50910;-51
2022/10/05 12:58:39;;;;;;;;;5.67;5.00;;;;;;;;5014617;28;51939;-51
2022/10/05 13:01:08;;;;;;;;;6.00;5.00;;;;;;;;5018366;27;51019;-52
2022/10/05 13:03:37;;;;;;;;;3.00;3.00;;;;;;;;5014773;27;50920;-50
2022/10/05 13:06:11;;;;;;;;;4.00;4.00;;;;;;;;5014397;28;50995;-50
2022/10/05 13:08:52;;;;;;;;;4.67;4.67;;;;;;;;5014251;27;52158;-49
2022/10/05 13:11:18;;;;;;;;;6.00;6.00;;;;;;;;5014902;27;51081;-52
2022/10/05 13:13:58;;;;;;;;;6.33;4.67;;;;;;;;5014957;27;51233;-50
2022/10/05 13:16:23;;;;;;;;;4.33;3.67;;;;;;;;5058778;27;51401;-50
2022/10/05 13:19:05;;;;;;;;;4.00;3.00;;;;;;;;5014405;27;51849;-50
2022/10/05 13:21:48;;;;;;;;;6.00;5.67;;;;;;;;5014349;28;51229;-51
2022/10/05 13:24:21;;;;;;;;;4.00;4.00;;;;;;;;5014285;28;51102;-50
2022/10/05 13:26:52;;;;;;;;;6.67;6.67;;;;;;;;5011397;28;51089;-47
2022/10/05 13:29:31;;;;;;;;;6.00;6.00;;;;;;;;5010741;27;51023;-51
2022/10/05 13:32:01;;;;;;;;;9.33;9.00;;;;;;;;5011027;28;51083;-49
2022/10/05 13:34:42;;;;;;;;;5.00;5.00;;;;;;;;5010972;28;51248;-51
2022/10/05 13:37:26;;;;;;;;;6.00;6.00;;;;;;;;5010859;28;51110;-49
2022/10/05 13:39:57;;;;;;;;;6.00;5.00;;;;;;;;5010742;27;51971;-51
2022/10/05 13:42:36;;;;;;;;;5.33;5.33;;;;;;;;4999519;28;51199;-49
2022/10/05 13:45:09;;;;;;;;;4.00;4.00;;;;;;;;5007747;28;50877;-49
2022/10/05 13:47:37;;;;;;;;;5.67;5.33;;;;;;;;5010995;28;51140;-50
2022/10/05 13:50:15;;;;;;;;;5.67;5.67;;;;;;;;5010572;27;52453;-48
2022/10/05 13:52:44;;;;;;;;;8.00;7.00;;;;;;;;5015914;28;50966;-50
2022/10/05 13:55:09;;;;;;;;;5.00;4.33;;;;;;;;4998202;28;50996;-51
2022/10/05 13:57:45;;;;;;;;;5.00;5.00;;;;;;;;5011541;28;51044;-50
2022/10/05 14:00:19;;;;;;;;;7.00;6.00;;;;;;;;5014152;27;52077;-50
2022/10/05 14:02:47;;;;;;;;;6.33;6.33;;;;;;;;5033765;27;51082;-50
2022/10/05 14:05:17;;;;;;;;;5.00;5.00;;;;;;;;5011313;28;50963;-51
2022/10/05 14:07:52;;;;;;;;;5.33;5.33;;;;;;;;5011012;28;51141;-51
2022/10/05 14:10:37;;;;;;;;;7.33;6.33;;;;;;;;5009728;28;50996;-49
2022/10/05 14:13:16;;;;;;;;;5.00;5.00;;;;;;;;5011246;28;51097;-52
2022/10/05 14:15:53;;;;;;;;;53.50;43.50;;;;;;;;5015954;27;51193;-51
2022/10/05 14:18:23;;;;;;;;;7.00;7.00;;;;;;;;5009810;28;50954;-52
2022/10/05 14:21:03;;;;;;;;;10.67;10.00;;;;;;;;5010256;27;51367;-53
2022/10/05 14:23:28;;;;;;;;;6.00;5.33;;;;;;;;5011084;28;51072;-49
2022/10/05 14:25:54;;;;;;;;;5.33;5.33;;;;;;;;5010634;28;50852;-49
2022/10/05 14:28:19;;;;;;;;;6.33;6.33;;;;;;;;5010915;28;51213;-52
2022/10/05 14:30:54;;;;;;;;;7.00;5.33;;;;;;;;5010642;28;51761;-52
2022/10/05 14:33:20;;;;;;;;;5.00;5.00;;;;;;;;4993126;28;51065;-50
2022/10/05 14:35:48;;;;;;;;;5.67;5.67;;;;;;;;5010258;27;50899;-51
2022/10/05 14:38:16;;;;;;;;;8.00;7.33;;;;;;;;5007668;28;51014;-50
2022/10/05 14:40:41;;;;;;;;;8.00;7.67;;;;;;;;5010120;28;50932;-48
2022/10/05 14:43:12;;;;;;;;;7.67;7.67;;;;;;;;5010281;28;50936;-50
2022/10/05 14:45:50;;;;;;;;;8.00;7.33;;;;;;;;5010341;28;51052;-51
2022/10/05 14:48:15;;;;;;;;;8.00;8.00;;;;;;;;5010383;28;51130;-51
2022/10/05 14:50:58;;;;;;;;;9.00;8.33;;;;;;;;5004243;27;51885;-51
2022/10/05 14:53:25;;;;;;;;;8.33;7.33;;;;;;;;5020026;28;51132;-51
2022/10/05 14:56:17;;;;;;;;;8.00;7.67;;;;;;;;5009303;27;51071;-51
2022/10/05 14:58:55;;;;;;;;;8.00;7.00;;;;;;;;5010214;28;50954;-50
2022/10/05 15:01:37;;;;;;;;;7.33;7.00;;;;;;;;5017029;27;51844;-49
2022/10/05 15:04:22;;;;;;;;;5.00;5.00;;;;;;;;5008342;28;51114;-51
2022/10/05 15:06:47;;;;;;;;;7.00;7.00;;;;;;;;5009291;28;51109;-49
2022/10/05 15:09:31;;;;;;;;;6.67;6.67;;;;;;;;5010414;28;50942;-49
2022/10/05 15:11:58;;;;;;;;;6.00;6.00;;;;;;;;5008554;28;52802;-50
2022/10/05 15:14:28;;;;;;;;;7.00;7.00;;;;;;;;5006456;28;50933;-51
2022/10/05 15:16:56;;;;;;;;;10.00;9.00;;;;;;;;5000756;27;51039;-50